Time;durP1;ratioP1;P1;durP2;ratioP2;P2;SDS_P1;SDS_P2;PMS_P1;PMS_P2;Temp;Humidity;BMP_temperature;BMP_pressure;BME280_temperature;BME280_humidity;BME280_pressure;Samples;Min_cycle;Max_cycle;Signal;HPM_P1;HPM_P2
2023/05/17 00:00:52;;;;;;;1.30;1.20;;;22.10;74.10;;;;;;4962459;28;20466;-47
2023/05/17 00:03:19;;;;;;;1.20;1.00;;;22.10;74.00;;;;;;4966912;28;20826;-53
2023/05/17 00:05:47;;;;;;;2.23;1.10;;;22.10;74.10;;;;;;4970660;28;20517;-46
2023/05/17 00:08:14;;;;;;;1.27;1.00;;;22.10;74.10;;;;;;4967446;28;20473;-49
2023/05/17 00:10:42;;;;;;;2.13;0.80;;;22.10;74.10;;;;;;4965314;28;20449;-47
2023/05/17 00:13:08;;;;;;;1.10;0.93;;;22.10;74.10;;;;;;4967248;28;20466;-48
2023/05/17 00:15:35;;;;;;;1.75;1.00;;;22.10;74.10;;;;;;4964284;28;20461;-52
2023/05/17 00:18:02;;;;;;;2.13;1.37;;;22.10;74.10;;;;;;4965587;28;20218;-47
2023/05/17 00:20:28;;;;;;;1.43;1.10;;;22.10;75.00;;;;;;4966175;28;20461;-47
2023/05/17 00:22:56;;;;;;;3.60;1.30;;;22.10;74.10;;;;;;4969572;28;20462;-47
2023/05/17 00:25:23;;;;;;;1.67;1.17;;;22.10;74.10;;;;;;4963648;28;20468;-50
2023/05/17 00:27:50;;;;;;;1.30;1.10;;;22.10;74.10;;;;;;4967893;28;20462;-47
2023/05/17 00:30:16;;;;;;;2.77;1.47;;;22.10;74.10;;;;;;4964306;28;20202;-48
2023/05/17 00:32:45;;;;;;;1.37;1.17;;;22.10;74.10;;;;;;4964810;28;20461;-51
2023/05/17 00:35:12;;;;;;;1.70;1.10;;;22.10;74.10;;;;;;4969404;28;20498;-48
2023/05/17 00:37:38;;;;;;;1.38;1.02;;;22.10;74.10;;;;;;4970178;28;20488;-49
2023/05/17 00:40:08;;;;;;;1.30;1.03;;;22.10;74.10;;;;;;4969186;28;20602;-50
2023/05/17 00:42:35;;;;;;;3.80;1.00;;;22.10;74.10;;;;;;4969011;28;20461;-49
2023/05/17 00:45:03;;;;;;;1.30;1.10;;;22.10;74.10;;;;;;4969221;28;20822;-47
2023/05/17 00:47:29;;;;;;;1.23;0.90;;;22.10;74.10;;;;;;4964604;28;20205;-47
2023/05/17 00:49:56;;;;;;;1.63;1.00;;;22.10;74.10;;;;;;4963825;28;20474;-47
2023/05/17 00:52:23;;;;;;;1.83;1.20;;;22.00;74.00;;;;;;4968060;28;20464;-48
2023/05/17 00:54:51;;;;;;;1.45;0.95;;;22.00;74.00;;;;;;4963744;28;20461;-51
2023/05/17 00:57:19;;;;;;;2.35;1.00;;;22.00;74.00;;;;;;4957101;28;20876;-51
2023/05/17 00:59:46;;;;;;;2.57;0.90;;;22.00;74.00;;;;;;4972635;28;20202;-50
2023/05/17 01:02:13;;;;;;;3.13;1.63;;;22.00;73.90;;;;;;4959623;28;21125;-49
2023/05/17 01:04:41;;;;;;;1.38;1.08;;;22.00;74.00;;;;;;4967685;28;20469;-50
2023/05/17 01:07:08;;;;;;;1.70;1.10;;;22.00;74.10;;;;;;4966875;28;20993;-49
2023/05/17 01:09:35;;;;;;;1.67;1.20;;;22.00;74.10;;;;;;4971000;28;20479;-49
2023/05/17 01:12:10;;;;;;;1.40;0.90;;;22.00;74.10;;;;;;4967548;28;20461;-49
2023/05/17 01:14:47;;;;;;;1.80;1.20;;;22.00;74.20;;;;;;4969978;28;20468;-48
2023/05/17 01:17:22;;;;;;;1.87;1.40;;;22.00;74.10;;;;;;4965629;28;21075;-50
2023/05/17 01:20:00;;;;;;;1.75;1.15;;;22.00;74.20;;;;;;4964831;28;20457;-50
2023/05/17 01:22:36;;;;;;;1.17;0.90;;;22.00;74.10;;;;;;4962688;28;20205;-47
2023/05/17 01:25:11;;;;;;;2.25;1.17;;;22.00;74.10;;;;;;4967481;28;20236;-47
2023/05/17 01:27:42;;;;;;;1.50;1.00;;;22.00;74.10;;;;;;4967403;28;20222;-48
2023/05/17 01:30:11;;;;;;;1.20;0.90;;;22.00;74.10;;;;;;4964090;28;20198;-50
2023/05/17 01:32:40;;;;;;;1.93;1.10;;;21.90;74.00;;;;;;4968716;28;20194;-47
2023/05/17 01:35:08;;;;;;;2.20;1.10;;;21.90;74.00;;;;;;4967962;28;21812;-48
2023/05/17 01:37:34;;;;;;;1.77;0.97;;;21.90;74.00;;;;;;4968214;28;20658;-48
2023/05/17 01:40:01;;;;;;;1.10;0.83;;;21.90;74.00;;;;;;4963834;28;20474;-50
2023/05/17 01:42:32;;;;;;;2.50;1.30;;;21.90;74.10;;;;;;4966538;28;20466;-48
2023/05/17 01:45:06;;;;;;;1.42;1.10;;;21.90;74.00;;;;;;4969702;28;20472;-47
2023/05/17 01:47:39;;;;;;;1.60;1.00;;;21.90;74.00;;;;;;4968286;28;20209;-48
2023/05/17 01:50:09;;;;;;;1.05;0.85;;;21.90;74.00;;;;;;4971400;28;20492;-48
2023/05/17 01:52:44;;;;;;;1.20;1.00;;;21.90;74.20;;;;;;4967802;28;20198;-49
2023/05/17 01:55:18;;;;;;;2.50;1.20;;;21.90;73.90;;;;;;4972654;28;20453;-48
2023/05/17 01:57:47;;;;;;;1.70;1.30;;;21.90;74.20;;;;;;4973850;28;20226;-47
2023/05/17 02:00:17;;;;;;;1.33;1.17;;;21.90;74.00;;;;;;4967400;28;20775;-50
2023/05/17 02:02:45;;;;;;;1.30;0.90;;;21.90;74.00;;;;;;4971785;28;20566;-52
2023/05/17 02:05:11;;;;;;;1.30;0.90;;;21.90;74.10;;;;;;4970154;28;20754;-48
2023/05/17 02:07:38;;;;;;;1.27;0.83;;;21.90;74.10;;;;;;4969323;28;20203;-50
2023/05/17 02:10:06;;;;;;;3.60;1.40;;;21.80;74.10;;;;;;4969544;28;20497;-47
2023/05/17 02:12:32;;;;;;;1.30;0.90;;;21.80;74.00;;;;;;4970329;28;20458;-49
2023/05/17 02:14:59;;;;;;;2.10;1.23;;;21.80;73.90;;;;;;4967809;28;20472;-51
2023/05/17 02:17:27;;;;;;;1.38;1.25;;;21.80;74.00;;;;;;4971605;28;20770;-49
2023/05/17 02:19:53;;;;;;;1.73;1.17;;;21.80;73.80;;;;;;4972583;28;20700;-50
2023/05/17 02:22:20;;;;;;;1.67;1.00;;;21.80;74.00;;;;;;4971386;28;20198;-47
2023/05/17 02:24:47;;;;;;;1.40;1.20;;;21.80;73.90;;;;;;4968479;28;20467;-48
2023/05/17 02:27:14;;;;;;;2.57;1.03;;;21.80;74.00;;;;;;4967221;28;20206;-52
2023/05/17 02:29:41;;;;;;;1.23;0.88;;;21.80;73.90;;;;;;4968946;28;20957;-49
2023/05/17 02:32:08;;;;;;;1.10;0.90;;;21.80;74.00;;;;;;4969832;28;20212;-49
2023/05/17 02:34:36;;;;;;;1.02;0.80;;;21.80;73.90;;;;;;4972490;28;20469;-51
2023/05/17 02:37:02;;;;;;;1.80;0.93;;;21.80;73.80;;;;;;4971219;28;20226;-50
2023/05/17 02:39:29;;;;;;;1.77;0.90;;;21.80;74.00;;;;;;4972178;28;20198;-50
2023/05/17 02:41:56;;;;;;;1.45;1.10;;;21.80;74.00;;;;;;4970897;28;20831;-51
2023/05/17 02:44:22;;;;;;;1.30;1.15;;;21.80;74.00;;;;;;4967823;28;20804;-51
2023/05/17 02:46:49;;;;;;;1.90;1.02;;;21.80;74.10;;;;;;4967510;28;20198;-50
2023/05/17 02:49:15;;;;;;;1.48;1.13;;;21.70;74.70;;;;;;4970401;28;20214;-52
2023/05/17 02:51:43;;;;;;;1.42;0.90;;;21.70;73.90;;;;;;4969590;28;21476;-50
2023/05/17 02:54:10;;;;;;;1.55;1.05;;;21.70;74.00;;;;;;4969458;28;20655;-51
2023/05/17 02:56:37;;;;;;;2.30;1.10;;;21.70;74.00;;;;;;4969167;28;20205;-47
2023/05/17 02:59:03;;;;;;;1.27;1.00;;;21.70;74.90;;;;;;4971735;28;20240;-48
2023/05/17 03:01:30;;;;;;;3.05;1.45;;;21.70;73.90;;;;;;4967731;28;20201;-47
2023/05/17 03:03:57;;;;;;;1.20;1.00;;;21.70;74.80;;;;;;4968965;28;20194;-49
2023/05/17 03:06:23;;;;;;;1.50;1.10;;;21.70;74.00;;;;;;4971640;28;20198;-50
2023/05/17 03:08:51;;;;;;;1.90;1.20;;;21.70;74.00;;;;;;4971522;28;20201;-48
2023/05/17 03:11:18;;;;;;;1.17;1.02;;;21.70;74.00;;;;;;4970984;28;20209;-48
2023/05/17 03:13:50;;;;;;;2.28;0.90;;;21.70;73.90;;;;;;4971007;28;20202;-49
2023/05/17 03:16:17;;;;;;;1.85;0.90;;;21.70;73.90;;;;;;4965808;28;20206;-51
2023/05/17 03:18:43;;;;;;;2.15;0.93;;;21.70;74.00;;;;;;4957904;28;20307;-48
2023/05/17 03:21:10;;;;;;;1.38;1.13;;;21.70;74.00;;;;;;4966286;28;20634;-52
2023/05/17 03:23:36;;;;;;;1.63;1.00;;;21.60;74.10;;;;;;4964071;28;20677;-48
2023/05/17 03:26:05;;;;;;;1.73;1.00;;;21.60;74.00;;;;;;4966263;28;20457;-49
2023/05/17 03:28:31;;;;;;;1.75;1.15;;;21.60;74.00;;;;;;4971581;28;20202;-51
2023/05/17 03:30:58;;;;;;;1.30;1.00;;;21.60;74.00;;;;;;4966163;28;20198;-58
2023/05/17 03:33:25;;;;;;;2.00;1.45;;;21.60;74.00;;;;;;4970986;28;20194;-49
2023/05/17 03:35:52;;;;;;;1.20;1.00;;;21.60;74.10;;;;;;4971117;28;20209;-47
2023/05/17 03:38:18;;;;;;;1.10;0.90;;;21.60;74.00;;;;;;4968078;28;20240;-46
2023/05/17 03:40:45;;;;;;;1.38;1.17;;;21.60;74.00;;;;;;4968500;28;20210;-49
2023/05/17 03:43:13;;;;;;;1.40;1.05;;;21.60;74.10;;;;;;4972314;28;20214;-48
2023/05/17 03:45:40;;;;;;;1.65;1.00;;;21.60;74.20;;;;;;4968395;28;20213;-48
2023/05/17 03:48:06;;;;;;;1.80;1.40;;;21.60;74.20;;;;;;4970531;28;20210;-47
2023/05/17 03:50:33;;;;;;;1.83;1.20;;;21.60;74.00;;;;;;4965566;28;20208;-48
2023/05/17 03:53:00;;;;;;;1.98;1.00;;;21.60;74.20;;;;;;4968870;28;20198;-48
2023/05/17 03:55:27;;;;;;;1.58;0.90;;;21.60;74.10;;;;;;4970236;28;20198;-48
2023/05/17 03:57:53;;;;;;;1.35;0.90;;;21.60;74.10;;;;;;4970482;28;20222;-47
2023/05/17 04:00:22;;;;;;;1.10;0.90;;;21.60;74.20;;;;;;4969517;28;20654;-48
2023/05/17 04:02:48;;;;;;;1.55;1.10;;;21.60;74.20;;;;;;4970620;28;20489;-47
2023/05/17 04:05:15;;;;;;;1.55;1.15;;;21.50;74.00;;;;;;4970994;28;20227;-51
2023/05/17 04:07:42;;;;;;;1.20;1.10;;;21.50;74.00;;;;;;4967471;28;20199;-49
2023/05/17 04:10:09;;;;;;;1.70;1.17;;;21.50;73.90;;;;;;4967096;28;20205;-48
2023/05/17 04:12:36;;;;;;;1.77;0.90;;;21.50;74.10;;;;;;4968400;28;20770;-49
2023/05/17 04:15:03;;;;;;;1.08;0.95;;;21.50;74.20;;;;;;4969125;28;20620;-48
2023/05/17 04:17:31;;;;;;;1.33;0.98;;;21.50;74.20;;;;;;4969493;28;20240;-48
2023/05/17 04:19:58;;;;;;;1.20;0.98;;;21.50;74.20;;;;;;4968158;28;20198;-53
2023/05/17 04:22:25;;;;;;;1.60;0.95;;;21.50;74.20;;;;;;4971305;28;20213;-49
2023/05/17 04:24:54;;;;;;;1.35;1.02;;;21.50;74.20;;;;;;4966496;28;20198;-48
2023/05/17 04:27:22;;;;;;;1.90;1.65;;;21.50;74.20;;;;;;4971149;28;20650;-51
2023/05/17 04:29:48;;;;;;;1.52;1.08;;;21.50;74.20;;;;;;4964297;28;20646;-48
2023/05/17 04:32:15;;;;;;;1.05;0.90;;;21.50;74.20;;;;;;4969916;28;20210;-48
2023/05/17 04:34:43;;;;;;;1.30;1.00;;;21.50;74.20;;;;;;4968789;28;20281;-52
2023/05/17 04:37:10;;;;;;;2.03;1.10;;;21.50;74.30;;;;;;4970275;28;20706;-52
2023/05/17 04:39:36;;;;;;;1.23;0.85;;;21.50;74.40;;;;;;4967309;28;20229;-47
2023/05/17 04:42:03;;;;;;;1.83;1.30;;;21.40;74.10;;;;;;4966160;28;20194;-53
2023/05/17 04:44:30;;;;;;;1.55;0.80;;;21.40;74.10;;;;;;4968558;28;20554;-51
2023/05/17 04:46:56;;;;;;;1.58;1.20;;;21.40;74.20;;;;;;4968463;28;20675;-51
2023/05/17 04:49:23;;;;;;;1.40;1.10;;;21.40;74.20;;;;;;4964452;28;20198;-48
2023/05/17 04:51:52;;;;;;;1.10;0.80;;;21.40;74.20;;;;;;4963009;28;20657;-48
2023/05/17 04:54:19;;;;;;;1.02;0.80;;;21.40;74.10;;;;;;4969691;28;20666;-48
2023/05/17 04:56:46;;;;;;;1.10;0.90;;;21.40;74.20;;;;;;4957731;28;20214;-47
2023/05/17 04:59:13;;;;;;;1.20;0.80;;;21.40;74.20;;;;;;4960993;28;20308;-50
2023/05/17 05:01:39;;;;;;;1.20;0.97;;;21.40;74.20;;;;;;4965596;28;20205;-48
2023/05/17 05:04:06;;;;;;;1.67;1.02;;;21.40;74.30;;;;;;4966218;28;20454;-49
2023/05/17 05:06:33;;;;;;;1.20;1.00;;;21.40;74.10;;;;;;4970140;28;20195;-49
2023/05/17 05:09:01;;;;;;;1.10;0.82;;;21.40;74.20;;;;;;4966935;28;20233;-47
2023/05/17 05:11:28;;;;;;;1.95;1.20;;;21.40;74.20;;;;;;4970225;28;20201;-49
2023/05/17 05:13:54;;;;;;;1.10;0.80;;;21.30;74.00;;;;;;4969244;28;20194;-52
2023/05/17 05:16:21;;;;;;;1.50;1.20;;;21.40;74.20;;;;;;4968886;28;20198;-47
2023/05/17 05:18:48;;;;;;;1.40;0.90;;;21.40;74.20;;;;;;4962846;28;20225;-49
2023/05/17 05:21:15;;;;;;;1.10;0.90;;;21.40;74.30;;;;;;4970009;28;20205;-49
2023/05/17 05:23:41;;;;;;;1.67;0.77;;;21.40;74.40;;;;;;4967261;28;20219;-49
2023/05/17 05:26:09;;;;;;;1.00;0.80;;;21.40;74.50;;;;;;4972399;28;20216;-50
2023/05/17 05:28:36;;;;;;;1.38;1.13;;;21.30;74.40;;;;;;4971102;28;20205;-50
2023/05/17 05:31:03;;;;;;;1.13;0.90;;;21.40;74.50;;;;;;4967594;28;20196;-52
2023/05/17 05:33:30;;;;;;;1.55;1.10;;;21.40;74.50;;;;;;4967994;28;20198;-48
2023/05/17 05:35:57;;;;;;;1.00;0.80;;;21.40;74.40;;;;;;4972837;28;20235;-49
2023/05/17 05:38:24;;;;;;;1.35;0.90;;;21.40;74.40;;;;;;4962989;28;20469;-50
2023/05/17 05:40:50;;;;;;;1.40;1.13;;;21.50;74.60;;;;;;4968148;28;20198;-50
2023/05/17 05:43:18;;;;;;;1.00;0.90;;;21.40;74.50;;;;;;4972780;28;20239;-49
2023/05/17 05:45:46;;;;;;;1.83;1.23;;;21.50;74.50;;;;;;4967104;28;20209;-48
2023/05/17 05:48:12;;;;;;;1.10;0.90;;;21.50;74.50;;;;;;4971324;28;20210;-50
2023/05/17 05:50:41;;;;;;;1.50;0.93;;;21.50;74.60;;;;;;4967115;28;20213;-49
2023/05/17 05:53:08;;;;;;;1.70;1.00;;;21.50;74.50;;;;;;4967713;28;20229;-49
2023/05/17 05:55:35;;;;;;;1.30;1.00;;;21.50;74.60;;;;;;4969073;28;20194;-48
2023/05/17 05:58:01;;;;;;;1.60;1.08;;;21.50;74.60;;;;;;4970859;28;20543;-47
2023/05/17 06:00:29;;;;;;;1.30;1.00;;;21.50;74.50;;;;;;4966177;28;20587;-52
2023/05/17 06:02:56;;;;;;;1.05;0.88;;;21.50;74.50;;;;;;4972010;28;20206;-49
2023/05/17 06:05:23;;;;;;;1.10;0.90;;;21.50;74.50;;;;;;4971588;28;20253;-50
2023/05/17 06:07:50;;;;;;;1.20;0.95;;;21.50;74.60;;;;;;4972818;28;20634;-50
2023/05/17 06:10:17;;;;;;;1.10;0.70;;;21.60;74.70;;;;;;4959751;28;20203;-49
2023/05/17 06:12:43;;;;;;;1.10;0.80;;;21.60;74.80;;;;;;4963870;28;20201;-49
2023/05/17 06:15:11;;;;;;;1.30;1.00;;;21.60;74.80;;;;;;4970744;28;20206;-49
2023/05/17 06:17:39;;;;;;;1.60;1.20;;;21.60;74.60;;;;;;4970681;28;20692;-50
2023/05/17 06:20:06;;;;;;;2.15;1.02;;;21.70;74.80;;;;;;4972611;28;20477;-48
2023/05/17 06:22:33;;;;;;;1.58;1.17;;;21.70;74.90;;;;;;4969818;28;20217;-49
2023/05/17 06:25:00;;;;;;;0.95;0.77;;;21.70;74.80;;;;;;4967383;28;20195;-49
2023/05/17 06:27:26;;;;;;;1.40;1.10;;;21.70;74.80;;;;;;4969768;28;20202;-49
2023/05/17 06:29:53;;;;;;;1.50;1.40;;;21.80;74.90;;;;;;4971237;28;20470;-49
2023/05/17 06:32:20;;;;;;;1.60;1.10;;;21.80;74.80;;;;;;4970180;28;20206;-48
2023/05/17 06:34:48;;;;;;;3.27;1.40;;;21.80;74.80;;;;;;4972139;28;20462;-47
2023/05/17 06:37:15;;;;;;;4.40;0.90;;;21.80;75.10;;;;;;4970312;28;20489;-50
2023/05/17 06:39:41;;;;;;;2.50;1.17;;;21.80;76.60;;;;;;4963408;28;20218;-49
2023/05/17 06:42:08;;;;;;;2.70;0.80;;;21.80;77.00;;;;;;4966862;28;20462;-50
2023/05/17 06:44:35;;;;;;;2.10;0.90;;;21.80;77.10;;;;;;4969220;28;20465;-51
2023/05/17 06:47:01;;;;;;;3.77;1.47;;;21.80;77.10;;;;;;4970519;28;20970;-48
2023/05/17 06:49:28;;;;;;;1.02;0.85;;;21.80;77.20;;;;;;4965810;28;20799;-49
2023/05/17 06:52:01;;;;;;;1.23;0.93;;;21.80;77.10;;;;;;4972969;28;20217;-53
2023/05/17 06:54:28;;;;;;;1.30;1.10;;;21.80;77.40;;;;;;4968467;28;20454;-50
2023/05/17 06:56:55;;;;;;;2.23;1.40;;;21.80;77.40;;;;;;4971457;28;20458;-50
2023/05/17 06:59:22;;;;;;;3.80;1.03;;;21.90;77.30;;;;;;4968463;28;20492;-48
2023/05/17 07:01:48;;;;;;;1.63;0.90;;;21.80;77.50;;;;;;4966746;28;20838;-50
2023/05/17 07:04:15;;;;;;;1.20;0.98;;;21.90;77.50;;;;;;4968211;28;20604;-51
2023/05/17 07:06:42;;;;;;;1.77;1.20;;;21.90;77.30;;;;;;4969618;28;20209;-51
2023/05/17 07:09:10;;;;;;;2.40;1.20;;;21.80;77.10;;;;;;4969964;28;20980;-49
2023/05/17 07:11:36;;;;;;;11.10;1.90;;;21.90;76.80;;;;;;4973281;28;20467;-54
2023/05/17 07:14:03;;;;;;;3.17;1.13;;;21.90;77.20;;;;;;4963021;28;20465;-51
2023/05/17 07:16:30;;;;;;;14.50;1.10;;;21.90;76.80;;;;;;4966306;28;20829;-50
2023/05/17 07:18:56;;;;;;;1.33;0.87;;;21.90;76.80;;;;;;4967480;28;20218;-49
2023/05/17 07:21:23;;;;;;;3.03;1.00;;;21.90;76.70;;;;;;4969303;28;20465;-51
2023/05/17 07:23:50;;;;;;;1.60;1.40;;;21.90;76.70;;;;;;4969181;28;20475;-52
2023/05/17 07:26:19;;;;;;;14.93;1.50;;;21.90;76.60;;;;;;4970126;28;20461;-51
2023/05/17 07:28:46;;;;;;;2.57;1.27;;;21.90;76.60;;;;;;4969460;28;20807;-53
2023/05/17 07:31:13;;;;;;;1.50;1.20;;;21.90;76.50;;;;;;4970959;28;20462;-52
2023/05/17 07:33:40;;;;;;;1.50;1.00;;;21.90;76.40;;;;;;4968669;28;20469;-53
2023/05/17 07:36:07;;;;;;;1.27;0.90;;;22.00;76.50;;;;;;4970963;28;20449;-49
2023/05/17 07:38:35;;;;;;;1.20;0.90;;;22.00;76.40;;;;;;4966341;28;21000;-51
2023/05/17 07:41:02;;;;;;;1.60;1.00;;;21.90;76.30;;;;;;4967920;28;20465;-49
2023/05/17 07:43:30;;;;;;;1.35;1.00;;;22.00;76.30;;;;;;4971161;28;20461;-49
2023/05/17 07:45:57;;;;;;;3.03;1.30;;;22.00;76.30;;;;;;4968840;28;20583;-49
2023/05/17 07:48:23;;;;;;;1.63;1.10;;;21.90;76.10;;;;;;4968316;28;20485;-48
2023/05/17 07:50:50;;;;;;;1.30;0.90;;;22.00;76.30;;;;;;4971351;28;20460;-51
2023/05/17 07:53:17;;;;;;;1.33;0.93;;;22.00;76.10;;;;;;4965775;28;20476;-48
2023/05/17 07:55:43;;;;;;;1.10;0.87;;;22.00;76.00;;;;;;4966823;28;20469;-52
2023/05/17 07:58:10;;;;;;;2.20;0.97;;;22.00;76.00;;;;;;4965160;28;20473;-52
2023/05/17 08:00:39;;;;;;;1.57;1.20;;;22.00;75.80;;;;;;4964178;28;20485;-49
2023/05/17 08:03:07;;;;;;;3.57;1.10;;;22.00;75.60;;;;;;4962465;28;20462;-50
2023/05/17 08:05:34;;;;;;;2.90;1.17;;;22.00;75.60;;;;;;4966863;28;21003;-48
2023/05/17 08:08:00;;;;;;;1.20;1.00;;;22.00;75.50;;;;;;4964270;28;20556;-48
2023/05/17 08:10:27;;;;;;;1.87;1.00;;;21.90;75.40;;;;;;4969213;28;20457;-48
2023/05/17 08:12:54;;;;;;;3.10;1.20;;;21.90;75.40;;;;;;4965802;28;20466;-50
2023/05/17 08:15:22;;;;;;;1.90;1.40;;;21.90;75.30;;;;;;4964809;28;20468;-49
2023/05/17 08:17:50;;;;;;;2.27;0.90;;;21.90;75.30;;;;;;4963856;28;20457;-50
2023/05/17 08:20:17;;;;;;;1.30;1.00;;;21.90;75.00;;;;;;4962473;28;20488;-47
2023/05/17 08:22:43;;;;;;;1.17;1.00;;;22.00;75.10;;;;;;4961616;28;20893;-51
2023/05/17 08:25:10;;;;;;;7.20;1.47;;;22.00;75.00;;;;;;4963066;28;20462;-52
2023/05/17 08:27:38;;;;;;;1.80;1.20;;;22.00;75.00;;;;;;4968597;28;20472;-49
2023/05/17 08:30:06;;;;;;;1.93;1.03;;;22.00;75.50;;;;;;4967400;28;20468;-50
2023/05/17 08:32:33;;;;;;;4.60;1.20;;;22.00;74.60;;;;;;4963463;28;20474;-52
2023/05/17 08:35:01;;;;;;;6.20;1.10;;;22.00;74.50;;;;;;4970308;28;20981;-48
2023/05/17 08:37:28;;;;;;;4.43;0.90;;;22.00;74.40;;;;;;4966437;28;20499;-50
2023/05/17 08:39:54;;;;;;;1.53;1.07;;;22.00;74.30;;;;;;4966623;28;20488;-52
2023/05/17 08:42:24;;;;;;;2.10;1.10;;;22.00;74.30;;;;;;4968099;28;20464;-50
2023/05/17 08:44:51;;;;;;;2.10;1.40;;;22.00;74.30;;;;;;4963635;28;20465;-50
2023/05/17 08:47:24;;;;;;;1.80;0.90;;;22.00;75.10;;;;;;4964226;28;20468;-51
2023/05/17 08:49:52;;;;;;;1.93;1.10;;;22.00;74.30;;;;;;4968623;28;20466;-48
2023/05/17 08:52:20;;;;;;;1.43;0.90;;;22.00;74.20;;;;;;4969178;28;20987;-50
2023/05/17 08:54:47;;;;;;;2.07;1.23;;;22.00;74.30;;;;;;4963377;28;20461;-53
2023/05/17 08:57:16;;;;;;;1.33;1.00;;;22.00;74.20;;;;;;4972588;28;20898;-48
2023/05/17 08:59:45;;;;;;;1.40;1.13;;;22.00;74.20;;;;;;4967560;28;20490;-52
2023/05/17 09:02:14;;;;;;;1.43;0.90;;;22.00;74.20;;;;;;4965578;28;20489;-48
2023/05/17 09:04:41;;;;;;;1.20;1.03;;;22.00;74.20;;;;;;4971985;28;21063;-51
2023/05/17 09:07:08;;;;;;;1.30;0.93;;;22.00;74.10;;;;;;4973455;28;20993;-50
2023/05/17 09:09:36;;;;;;;1.93;1.03;;;22.00;74.10;;;;;;4971662;28;20472;-48
2023/05/17 09:12:04;;;;;;;1.57;0.90;;;22.00;74.10;;;;;;4965508;28;21023;-50
2023/05/17 09:14:34;;;;;;;2.93;1.00;;;22.00;74.10;;;;;;4966682;28;20547;-52
2023/05/17 09:17:01;;;;;;;3.47;1.10;;;22.00;74.10;;;;;;4967763;28;21365;-49
2023/05/17 09:19:30;;;;;;;1.87;1.23;;;22.00;74.10;;;;;;4964381;28;20838;-48
2023/05/17 09:22:01;;;;;;;1.97;1.20;;;22.00;74.00;;;;;;4971302;28;20470;-49
2023/05/17 09:24:28;;;;;;;1.20;0.87;;;22.00;74.00;;;;;;4967527;28;20465;-48
2023/05/17 09:27:01;;;;;;;1.10;0.80;;;22.00;74.00;;;;;;4971881;28;20524;-51
2023/05/17 09:29:30;;;;;;;1.77;1.07;;;22.00;74.10;;;;;;4963064;28;20476;-48
2023/05/17 09:31:57;;;;;;;1.50;1.07;;;22.00;74.10;;;;;;4966456;28;20855;-48
2023/05/17 09:34:24;;;;;;;1.10;0.80;;;22.00;74.00;;;;;;4968177;28;20457;-48
2023/05/17 09:36:53;;;;;;;1.27;0.90;;;22.00;74.00;;;;;;4971669;28;20500;-51
2023/05/17 09:39:20;;;;;;;1.73;1.00;;;22.00;74.10;;;;;;4971148;28;20477;-50
2023/05/17 09:41:48;;;;;;;1.40;1.00;;;22.00;74.00;;;;;;4971478;28;20505;-50
2023/05/17 09:44:16;;;;;;;1.00;0.80;;;22.00;74.00;;;;;;4972486;28;20461;-49
2023/05/17 09:46:46;;;;;;;6.20;1.63;;;22.00;74.10;;;;;;4966173;28;20469;-50
2023/05/17 09:49:12;;;;;;;1.63;1.00;;;22.00;73.30;;;;;;4968296;28;20551;-47
2023/05/17 09:51:42;;;;;;;4.70;1.10;;;22.00;73.20;;;;;;4966170;28;20480;-46
2023/05/17 09:54:09;;;;;;;4.10;1.53;;;22.00;73.40;;;;;;4961431;28;21139;-48
2023/05/17 09:56:36;;;;;;;10.87;1.43;;;22.00;73.50;;;;;;4967719;28;20486;-50
2023/05/17 09:59:03;;;;;;;4.73;1.10;;;22.10;73.70;;;;;;4966931;28;20465;-51
2023/05/17 10:01:32;;;;;;;3.77;1.30;;;22.10;74.00;;;;;;4970875;28;20472;-48
2023/05/17 10:04:01;;;;;;;1.20;0.97;;;22.10;74.10;;;;;;4971594;28;20532;-53
2023/05/17 10:06:29;;;;;;;2.80;1.30;;;22.10;74.30;;;;;;4967957;28;20553;-52
2023/05/17 10:08:58;;;;;;;2.47;1.30;;;22.10;74.40;;;;;;4970177;28;20496;-49
2023/05/17 10:11:32;;;;;;;1.50;0.90;;;22.10;74.60;;;;;;4972126;28;20457;-55
2023/05/17 10:14:05;;;;;;;1.80;1.03;;;22.20;74.80;;;;;;4971940;28;20458;-57
2023/05/17 10:16:34;;;;;;;2.10;1.17;;;22.20;74.80;;;;;;4973028;28;20894;-49
2023/05/17 10:19:02;;;;;;;1.57;0.83;;;22.20;74.80;;;;;;4970064;28;20469;-47
2023/05/17 10:21:30;;;;;;;2.90;0.90;;;22.20;74.90;;;;;;4968942;28;20596;-47
2023/05/17 10:23:59;;;;;;;2.97;1.10;;;22.20;75.00;;;;;;4969083;28;20812;-51
2023/05/17 10:26:27;;;;;;;1.43;0.80;;;22.20;74.80;;;;;;4968191;28;20466;-51
2023/05/17 10:28:59;;;;;;;1.70;1.07;;;22.20;74.70;;;;;;4968594;28;20457;-52
2023/05/17 10:31:27;;;;;;;0.90;0.70;;;22.30;75.00;;;;;;4969225;28;20977;-52
2023/05/17 10:33:55;;;;;;;1.83;1.20;;;22.30;74.90;;;;;;4967968;28;20466;-56
2023/05/17 10:36:24;;;;;;;2.17;1.23;;;22.30;75.00;;;;;;4969622;28;20572;-46
2023/05/17 10:38:51;;;;;;;3.00;1.73;;;22.30;75.00;;;;;;4969093;28;20458;-50
2023/05/17 10:41:20;;;;;;;1.97;1.17;;;22.40;75.10;;;;;;4969960;28;20512;-54
2023/05/17 10:43:48;;;;;;;2.47;1.30;;;22.40;75.10;;;;;;4961753;28;20476;-48
2023/05/17 10:46:16;;;;;;;5.47;1.20;;;22.40;74.90;;;;;;4964472;28;20471;-54
2023/05/17 10:48:44;;;;;;;1.43;0.70;;;22.50;75.00;;;;;;4967371;28;20545;-48
2023/05/17 10:51:12;;;;;;;2.77;1.17;;;22.50;74.80;;;;;;4969668;28;20511;-46
2023/05/17 10:54:08;;;;;;;2.30;1.33;;;22.50;74.60;;;;;;4971799;28;20460;-53
2023/05/17 10:56:35;;;;;;;2.73;0.90;;;22.50;74.40;;;;;;4967400;28;20484;-55
2023/05/17 10:59:21;;;;;;;2.63;1.40;;;22.60;74.50;;;;;;4963908;28;20454;-51
2023/05/17 11:01:53;;;;;;;5.17;1.40;;;22.60;74.20;;;;;;4963472;28;20465;-55
2023/05/17 11:04:22;;;;;;;2.40;1.20;;;22.50;66.20;;;;;;4967309;28;20457;-48
2023/05/17 11:06:51;;;;;;;6.23;1.27;;;22.50;70.50;;;;;;4969344;28;20466;-55
2023/05/17 11:09:22;;;;;;;2.40;1.40;;;22.60;71.10;;;;;;4969391;28;20830;-48
2023/05/17 11:12:05;;;;;;;3.53;1.43;;;22.60;71.40;;;;;;4969494;28;20462;-51
2023/05/17 11:14:46;;;;;;;4.03;1.10;;;22.70;71.20;;;;;;4964867;28;20829;-49
2023/05/17 11:17:13;;;;;;;1.97;1.40;;;22.70;71.20;;;;;;4967621;28;20476;-52
2023/05/17 11:19:49;;;;;;;2.80;0.90;;;22.70;71.40;;;;;;4961092;28;20501;-55
2023/05/17 11:22:17;;;;;;;2.70;1.33;;;22.70;71.00;;;;;;4974022;28;20484;-53
2023/05/17 11:24:45;;;;;;;2.17;1.33;;;22.80;71.20;;;;;;4986407;28;20460;-51
2023/05/17 11:27:14;;;;;;;2.80;1.30;;;22.80;71.10;;;;;;4990033;28;20858;-54
2023/05/17 11:29:41;;;;;;;1.83;1.03;;;22.80;71.20;;;;;;4985092;28;20454;-50
2023/05/17 11:32:10;;;;;;;3.30;1.20;;;22.80;70.80;;;;;;4985577;28;20499;-52
2023/05/17 11:34:37;;;;;;;1.93;1.10;;;22.90;70.80;;;;;;4985242;28;20482;-49
2023/05/17 11:37:09;;;;;;;2.67;1.40;;;22.90;70.70;;;;;;4991133;28;20537;-49
2023/05/17 11:39:57;;;;;;;1.70;1.10;;;22.90;70.70;;;;;;4987561;28;20456;-50
2023/05/17 11:42:25;;;;;;;2.10;0.80;;;22.90;70.80;;;;;;4982018;28;20956;-54
2023/05/17 11:44:56;;;;;;;1.60;1.50;;;22.90;70.40;;;;;;4987177;28;20496;-57
2023/05/17 11:47:24;;;;;;;2.43;1.10;;;23.00;70.60;;;;;;4986644;28;20465;-51
2023/05/17 11:49:51;;;;;;;5.17;1.27;;;23.00;70.60;;;;;;4988172;28;20487;-48
2023/05/17 11:52:18;;;;;;;2.50;1.27;;;23.00;69.60;;;;;;4980445;28;20844;-48
2023/05/17 11:54:48;;;;;;;5.03;1.43;;;22.90;67.40;;;;;;4989222;28;20461;-46
2023/05/17 11:57:16;;;;;;;3.50;1.10;;;22.90;67.80;;;;;;4987123;28;20471;-51
2023/05/17 11:59:43;;;;;;;2.87;1.50;;;22.90;66.30;;;;;;4988374;28;20453;-48
2023/05/17 12:02:10;;;;;;;3.13;1.67;;;22.90;67.50;;;;;;4985187;28;20476;-50
2023/05/17 12:04:38;;;;;;;2.67;1.20;;;22.90;67.30;;;;;;4988564;28;20464;-56
2023/05/17 12:07:08;;;;;;;3.87;1.47;;;22.90;67.10;;;;;;4985752;28;20466;-51
2023/05/17 12:09:34;;;;;;;1.83;1.10;;;22.90;66.90;;;;;;4989863;28;20465;-53
2023/05/17 12:12:04;;;;;;;3.83;1.47;;;22.90;66.80;;;;;;4989798;28;20472;-53
2023/05/17 12:14:31;;;;;;;2.50;1.17;;;23.00;66.30;;;;;;4984790;28;20465;-49
2023/05/17 12:16:59;;;;;;;2.50;0.93;;;23.00;66.60;;;;;;4985599;28;20549;-56
2023/05/17 12:19:28;;;;;;;2.60;1.00;;;23.00;67.00;;;;;;4987136;28;20519;-54
2023/05/17 12:22:06;;;;;;;7.00;1.57;;;23.00;66.60;;;;;;4989295;28;20485;-52
2023/05/17 12:24:37;;;;;;;1.83;1.20;;;23.00;65.80;;;;;;4983297;28;20885;-52
2023/05/17 12:27:05;;;;;;;4.70;1.37;;;23.00;66.00;;;;;;4988315;28;20463;-51
2023/05/17 12:29:32;;;;;;;2.30;1.20;;;23.00;66.20;;;;;;4989220;28;20465;-55
2023/05/17 12:32:00;;;;;;;2.30;1.40;;;23.00;67.00;;;;;;4983816;28;20464;-56
2023/05/17 12:34:27;;;;;;;5.40;1.00;;;23.10;67.30;;;;;;4983782;28;20461;-57
2023/05/17 12:36:55;;;;;;;2.37;0.97;;;23.10;67.50;;;;;;4990162;28;20483;-56
2023/05/17 12:39:23;;;;;;;2.50;1.00;;;23.10;67.50;;;;;;4988489;28;20464;-57
2023/05/17 12:41:50;;;;;;;2.60;1.10;;;23.20;67.70;;;;;;4984985;28;20527;-56
2023/05/17 12:44:19;;;;;;;6.10;1.30;;;23.20;67.30;;;;;;4985002;28;20492;-53
2023/05/17 12:46:52;;;;;;;3.10;1.43;;;23.20;66.20;;;;;;4984161;28;20460;-55
2023/05/17 12:49:20;;;;;;;3.70;1.00;;;23.20;66.40;;;;;;4984837;28;20460;-52